createdAt,value
2019-02-22T00:02:15.374Z,32.63
2019-02-22T00:04:46.950Z,35.17
2019-02-22T00:07:17.645Z,33.67
2019-02-22T00:09:49.699Z,35.43
2019-02-22T00:12:20.617Z,37.70
2019-02-22T00:14:51.333Z,34.53
2019-02-22T00:17:22.021Z,40.53
2019-02-22T00:19:52.719Z,39.40
2019-02-22T00:22:23.417Z,35.33
2019-02-22T00:24:54.149Z,38.37
2019-02-22T00:27:25.876Z,38.67
2019-02-22T00:29:56.581Z,36.63
2019-02-22T00:32:27.349Z,46.33
2019-02-22T00:34:58.169Z,38.23
2019-02-22T00:37:29.917Z,39.73
2019-02-22T00:40:00.736Z,37.07
2019-02-22T00:42:32.581Z,36.50
2019-02-22T00:45:03.336Z,38.73
2019-02-22T00:47:34.105Z,38.03
2019-02-22T00:50:05.969Z,33.30
2019-02-22T00:52:36.676Z,36.43
2019-02-22T00:55:07.400Z,33.63
2019-02-22T00:57:38.096Z,43.13
2019-02-22T01:00:09.440Z,36.87
2019-02-22T01:02:40.206Z,34.70
2019-02-22T01:05:10.902Z,37.50
2019-02-22T01:07:41.604Z,42.23
2019-02-22T01:10:12.346Z,36.87
2019-02-22T01:12:43.083Z,35.90
2019-02-22T01:15:13.853Z,41.53
2019-02-22T01:17:44.542Z,40.50
2019-02-22T01:20:15.246Z,42.47
2019-02-22T01:22:45.950Z,40.53
2019-02-22T01:25:16.641Z,40.77
2019-02-22T01:27:47.336Z,41.53
2019-02-22T01:30:18.014Z,40.87
2019-02-22T01:32:48.706Z,40.87
2019-02-22T01:35:20.409Z,39.23
2019-02-22T01:37:51.119Z,44.53
2019-02-22T01:40:21.888Z,42.60
2019-02-22T01:42:52.659Z,43.20
2019-02-22T01:45:23.350Z,44.20
2019-02-22T01:47:54.053Z,47.03
2019-02-22T01:50:25.150Z,44.17
2019-02-22T01:52:55.880Z,48.63
2019-02-22T01:55:26.617Z,42.90
2019-02-22T01:57:57.316Z,45.33
2019-02-22T03:00:54.629Z,51.40
2019-02-22T03:03:25.329Z,53.23
2019-02-22T03:06:06.734Z,48.03
2019-02-22T03:08:37.410Z,47.93
2019-02-22T03:11:19.706Z,49.47
2019-02-22T03:13:40.501Z,53.47
2019-02-22T03:16:11.197Z,51.03
2019-02-22T03:18:41.918Z,52.20
2019-02-22T03:21:12.596Z,54.60
2019-02-22T03:23:43.298Z,48.27
2019-02-22T03:26:13.987Z,48.50
2019-02-22T03:28:44.798Z,50.03
2019-02-22T03:31:15.516Z,58.37
2019-02-22T03:33:46.279Z,50.60
2019-02-22T03:36:17.066Z,73.00
2019-02-22T03:38:47.746Z,69.87
2019-02-22T03:41:18.499Z,60.30
2019-02-22T03:43:49.189Z,53.07
2019-02-22T03:46:20.866Z,52.23
2019-02-22T03:48:51.596Z,55.37
2019-02-22T03:51:22.269Z,53.93
2019-02-22T03:53:57.529Z,50.40
2019-02-22T03:56:28.247Z,51.83
2019-02-22T03:59:00.079Z,53.43
2019-02-22T04:01:30.891Z,49.53
2019-02-22T04:04:01.570Z,47.63
2019-02-22T04:06:32.338Z,51.13
2019-02-22T04:09:03.520Z,47.63
2019-02-22T04:11:45.018Z,50.90
2019-02-22T04:14:07.836Z,51.27
2019-02-22T04:16:38.613Z,50.23
2019-02-22T04:19:09.325Z,51.10
2019-02-22T04:21:40.000Z,51.40
2019-02-22T04:24:11.523Z,47.63
2019-02-22T04:26:42.296Z,51.13
2019-02-22T04:29:13.160Z,50.97
2019-02-22T04:31:43.918Z,50.47
2019-02-22T04:34:14.621Z,48.73
2019-02-22T04:36:45.433Z,50.57
2019-02-22T04:39:16.111Z,52.07
2019-02-22T04:41:57.654Z,48.07
2019-02-22T04:44:19.177Z,44.13
2019-02-22T04:46:50.157Z,49.77
2019-02-22T04:49:20.853Z,43.73
2019-02-22T04:51:51.582Z,48.33
2019-02-22T04:54:23.189Z,42.93
2019-02-22T04:56:53.902Z,42.07
2019-02-22T04:59:24.604Z,43.73
2019-02-22T05:01:55.276Z,40.77
2019-02-22T05:04:26.049Z,48.60
2019-02-22T05:06:56.732Z,43.83
2019-02-22T05:09:27.437Z,48.93
2019-02-22T05:12:10.069Z,40.20
2019-02-22T05:14:30.993Z,40.30
2019-02-22T05:17:01.677Z,42.83
2019-02-22T05:19:32.373Z,44.90
2019-02-22T05:22:03.109Z,44.73
2019-02-22T05:24:33.777Z,37.10
2019-02-22T05:27:04.480Z,45.10
2019-02-22T05:29:35.237Z,40.97
2019-02-22T05:32:05.961Z,36.27
2019-02-22T05:34:36.687Z,36.77
2019-02-22T05:37:07.485Z,36.43
2019-02-22T05:39:38.258Z,43.40
2019-02-22T05:42:09.000Z,43.33
2019-02-22T05:44:39.711Z,41.40
2019-02-22T05:47:10.470Z,41.90
2019-02-22T05:49:41.141Z,40.90
2019-02-22T05:52:11.847Z,34.50
2019-02-22T05:54:42.583Z,40.73
2019-02-22T05:57:14.304Z,37.07
2019-02-22T05:59:45.327Z,35.07
2019-02-22T06:02:15.993Z,39.90
2019-02-22T06:04:47.287Z,38.90
2019-02-22T06:07:18.065Z,45.20
2019-02-22T06:09:48.755Z,44.03
2019-02-22T06:12:19.429Z,45.07
2019-02-22T06:14:50.124Z,49.33
2019-02-22T06:17:20.852Z,45.03
2019-02-22T06:19:51.552Z,45.03
2019-02-22T06:22:29.506Z,47.17
2019-02-22T06:24:55.039Z,40.57
2019-02-22T06:27:26.476Z,40.50
2019-02-22T06:29:57.253Z,42.23
2019-02-22T06:32:28.045Z,43.00
2019-02-22T06:34:58.850Z,44.83
2019-02-22T06:37:29.562Z,41.20
2019-02-22T06:40:00.448Z,39.10
2019-02-22T06:42:32.222Z,43.47
2019-02-22T06:45:02.922Z,42.27
2019-02-22T06:47:33.936Z,43.30
2019-02-22T06:50:04.965Z,45.03
2019-02-22T06:52:35.983Z,47.50
2019-02-22T06:55:06.773Z,40.70
2019-02-22T06:57:38.538Z,40.37
2019-02-22T07:00:10.394Z,36.77
2019-02-22T07:02:41.104Z,42.17
2019-02-22T07:05:11.821Z,45.07
2019-02-22T07:07:43.569Z,39.80
2019-02-22T07:10:14.480Z,42.77
2019-02-22T07:12:56.582Z,42.13
2019-02-22T07:15:21.040Z,39.47
2019-02-22T07:17:51.737Z,49.23
2019-02-22T07:20:22.450Z,48.87
2019-02-22T07:22:53.113Z,47.30
2019-02-22T07:25:23.815Z,42.30
2019-02-22T07:27:54.594Z,39.50
2019-02-22T07:30:25.303Z,50.30
2019-02-22T07:32:56.050Z,47.63
2019-02-22T07:35:26.832Z,52.87
2019-02-22T07:37:57.626Z,46.77
2019-02-22T07:40:28.325Z,42.10
2019-02-22T07:43:07.714Z,37.73
2019-02-22T07:45:31.449Z,36.97
2019-02-22T07:48:02.183Z,41.43
2019-02-22T07:50:32.946Z,37.83
2019-02-22T07:53:03.677Z,40.10
2019-02-22T07:55:34.436Z,38.37
2019-02-22T07:58:05.127Z,41.90
2019-02-22T08:00:35.861Z,51.53
2019-02-22T08:03:06.594Z,50.87
2019-02-22T08:05:37.345Z,44.83
2019-02-22T08:08:08.039Z,42.27
2019-02-22T08:10:38.849Z,41.23
2019-02-22T08:13:19.156Z,53.93
2019-02-22T08:15:43.323Z,48.97
2019-02-22T08:18:14.093Z,39.27
2019-02-22T08:20:44.819Z,39.53
2019-02-22T08:23:15.493Z,46.20
2019-02-22T08:25:46.201Z,50.33
2019-02-22T08:28:16.930Z,62.80
2019-02-22T08:30:47.716Z,56.77
2019-02-22T08:33:18.418Z,43.30
2019-02-22T08:35:49.153Z,44.63
2019-02-22T08:38:19.913Z,47.07
2019-02-22T08:40:50.618Z,38.73
2019-02-22T08:43:31.225Z,40.60
2019-02-22T08:45:53.745Z,45.63
2019-02-22T08:48:24.797Z,44.23
2019-02-22T08:50:55.494Z,43.17
2019-02-22T08:53:26.289Z,42.50
2019-02-22T08:55:56.993Z,37.80
2019-02-22T08:58:27.792Z,29.80
2019-02-22T09:00:58.504Z,31.83
2019-02-22T09:03:29.832Z,29.63
2019-02-22T09:06:00.610Z,29.50
2019-02-22T09:08:31.809Z,32.20
2019-02-22T09:11:01.897Z,26.73
2019-02-22T09:13:43.065Z,26.10
2019-02-22T09:16:05.961Z,22.27
2019-02-22T09:18:36.670Z,19.67
2019-02-22T09:21:07.661Z,15.63
2019-02-22T09:23:38.354Z,12.20
2019-02-22T09:26:09.068Z,6.37
2019-02-22T09:28:39.803Z,3.67
2019-02-22T09:31:10.605Z,4.33
2019-02-22T09:33:41.285Z,3.03
2019-02-22T09:36:11.983Z,2.50
2019-02-22T09:38:43.059Z,2.40
2019-02-22T09:41:13.780Z,5.00
2019-02-22T09:43:54.302Z,1.90
2019-02-22T09:46:16.898Z,3.13
2019-02-22T09:48:47.649Z,2.40
2019-02-22T09:51:18.325Z,2.37
2019-02-22T09:53:49.007Z,3.67
2019-02-22T09:56:19.679Z,1.93
2019-02-22T09:58:50.363Z,2.67
2019-02-22T10:01:21.125Z,2.67
2019-02-22T10:03:51.895Z,4.00
2019-02-22T10:06:22.574Z,3.90
2019-02-22T10:08:53.259Z,4.43
2019-02-22T10:11:23.989Z,4.23
2019-02-22T10:14:06.070Z,3.77
2019-02-22T10:16:27.652Z,3.37
2019-02-22T10:18:58.669Z,5.10
2019-02-22T10:21:29.406Z,3.70
2019-02-22T10:24:00.127Z,5.47
2019-02-22T10:26:30.967Z,6.17
2019-02-22T10:29:01.667Z,5.07
2019-02-22T10:31:32.433Z,6.83
2019-02-22T10:34:03.110Z,4.70
2019-02-22T10:36:44.473Z,9.97
2019-02-22T10:39:06.789Z,5.27
2019-02-22T10:41:39.163Z,5.67
2019-02-22T10:44:17.404Z,6.03
2019-02-22T10:46:42.262Z,6.43
2019-02-22T10:49:13.243Z,5.73
2019-02-22T10:51:44.050Z,5.23
2019-02-22T10:54:14.813Z,5.53
2019-02-22T10:56:45.482Z,5.50
2019-02-22T10:59:16.178Z,5.30
2019-02-22T11:01:48.114Z,6.63
2019-02-22T11:04:18.854Z,5.33
2019-02-22T11:06:49.576Z,6.00
2019-02-22T11:09:20.353Z,6.97
2019-02-22T11:11:51.068Z,6.53
2019-02-22T11:14:28.678Z,6.97
2019-02-22T11:16:57.276Z,8.63
2019-02-22T11:19:28.005Z,7.53
2019-02-22T11:21:58.702Z,7.57
2019-02-22T11:24:29.429Z,6.63
2019-02-22T11:27:00.170Z,7.97
2019-02-22T11:29:30.870Z,9.73
2019-02-22T11:32:01.950Z,9.93
2019-02-22T11:34:32.819Z,10.87
2019-02-22T11:37:03.689Z,9.30
2019-02-22T11:39:34.421Z,8.80
2019-02-22T11:42:05.479Z,9.97
2019-02-22T11:44:40.269Z,8.80
2019-02-22T11:47:08.576Z,9.97
2019-02-22T11:49:39.726Z,12.17
2019-02-22T11:52:10.533Z,13.70
2019-02-22T11:54:41.242Z,10.97
2019-02-22T11:57:11.933Z,10.70
2019-02-22T11:59:42.613Z,8.73
2019-02-22T12:02:13.376Z,8.37
2019-02-22T12:04:44.101Z,14.50
2019-02-22T12:07:14.850Z,8.73
2019-02-22T12:09:45.590Z,8.33
2019-02-22T12:12:16.338Z,7.73
2019-02-22T12:14:51.937Z,10.20
2019-02-22T12:17:20.516Z,9.87
2019-02-22T12:19:51.239Z,6.97
2019-02-22T12:22:22.077Z,9.93
2019-02-22T12:24:53.143Z,7.30
2019-02-22T12:27:23.824Z,7.47
2019-02-22T12:29:55.594Z,7.63
2019-02-22T12:32:26.340Z,10.10
2019-02-22T12:34:57.464Z,5.97
2019-02-22T12:37:28.225Z,7.07
2019-02-22T12:39:59.212Z,8.90
2019-02-22T12:42:29.921Z,7.10
2019-02-22T12:45:03.175Z,9.53
2019-02-22T12:47:34.458Z,6.90
2019-02-22T12:50:08.025Z,7.23
2019-02-22T12:52:38.777Z,6.43
2019-02-22T12:55:10.653Z,11.63
2019-02-22T12:57:42.339Z,8.73
2019-02-22T13:00:13.674Z,7.73
2019-02-22T13:02:44.381Z,7.90
2019-02-22T13:05:16.179Z,7.03
2019-02-22T13:07:46.886Z,7.83
2019-02-22T13:10:17.588Z,9.47
2019-02-22T13:12:48.357Z,6.30
2019-02-22T13:15:19.364Z,6.90
2019-02-22T13:17:50.823Z,5.60
2019-02-22T13:20:21.508Z,6.63
2019-02-22T13:22:53.157Z,6.40
2019-02-22T13:25:23.878Z,6.87
2019-02-22T13:27:55.809Z,6.73
2019-02-22T13:30:26.502Z,6.40
2019-02-22T13:32:57.198Z,5.63
2019-02-22T13:35:28.857Z,6.40
2019-02-22T13:37:59.569Z,6.67
2019-02-22T13:40:30.257Z,6.93
2019-02-22T13:43:00.937Z,6.93
2019-02-22T13:45:31.632Z,6.30
2019-02-22T13:48:02.470Z,6.63
2019-02-22T13:50:33.529Z,7.73
2019-02-22T13:53:04.345Z,5.63
2019-02-22T13:55:35.074Z,6.13
2019-02-22T13:58:05.757Z,7.23
2019-02-22T14:00:36.457Z,7.63
2019-02-22T14:03:07.230Z,8.67
2019-02-22T14:05:37.981Z,32.27
2019-02-22T14:08:08.929Z,345.00
2019-02-22T14:10:39.634Z,15.57
2019-02-22T14:13:10.376Z,7.03
2019-02-22T14:15:41.076Z,9.13
2019-02-22T14:18:12.628Z,11.23
2019-02-22T14:20:43.316Z,5.60
2019-02-22T14:23:14.006Z,5.50
2019-02-22T14:25:45.479Z,6.03
2019-02-22T14:28:16.158Z,5.93
2019-02-22T14:30:46.828Z,6.23
2019-02-22T14:33:17.508Z,5.37
2019-02-22T14:35:48.182Z,5.33
2019-02-22T14:38:19.005Z,5.30
2019-02-22T14:40:49.761Z,4.73
2019-02-22T14:43:20.425Z,4.97
2019-02-22T14:45:53.224Z,4.53
2019-02-22T14:48:23.582Z,4.67
2019-02-22T14:50:54.258Z,4.57
2019-02-22T14:53:24.968Z,8.00
2019-02-22T14:55:55.630Z,5.30
2019-02-22T14:58:26.389Z,5.30
2019-02-22T15:00:57.045Z,4.73
2019-02-22T15:03:27.805Z,6.57
2019-02-22T15:05:58.516Z,6.37
2019-02-22T15:08:29.376Z,6.20
2019-02-22T15:11:00.969Z,5.40
2019-02-22T15:13:31.717Z,5.30
2019-02-22T15:16:09.957Z,8.97
2019-02-22T15:18:40.679Z,4.13
2019-02-22T15:21:11.505Z,4.50
2019-02-22T15:23:42.439Z,5.03
2019-02-22T15:26:13.581Z,4.03
2019-02-22T15:28:44.616Z,4.47
2019-02-22T15:31:15.385Z,4.67
2019-02-22T15:33:46.064Z,5.03
2019-02-22T15:36:16.897Z,7.40
2019-02-22T15:38:49.374Z,4.80
2019-02-22T15:41:20.294Z,5.93
2019-02-22T15:43:51.342Z,5.37
2019-02-22T15:46:22.138Z,7.73
2019-02-22T15:48:54.047Z,6.50
2019-02-22T15:51:25.645Z,6.63
2019-02-22T15:53:56.382Z,5.97
2019-02-22T15:56:27.193Z,5.20
2019-02-22T15:58:57.876Z,8.97
2019-02-22T16:01:28.544Z,6.70
2019-02-22T16:04:18.170Z,10.70
2019-02-22T16:06:48.920Z,10.17
2019-02-22T16:09:19.758Z,9.27
2019-02-22T16:11:52.342Z,6.37
2019-02-22T16:14:22.977Z,6.07
2019-02-22T16:16:53.659Z,6.03
2019-02-22T16:19:24.453Z,5.87
2019-02-22T16:21:55.204Z,6.00
2019-02-22T16:24:25.872Z,5.13
2019-02-22T16:27:03.569Z,5.10
2019-02-22T16:29:34.356Z,9.33
2019-02-22T16:32:06.210Z,6.40
2019-02-22T16:34:43.564Z,5.33
2019-02-22T16:37:09.261Z,5.27
2019-02-22T16:39:40.057Z,5.17
2019-02-22T16:42:10.834Z,6.00
2019-02-22T16:44:41.516Z,4.90
2019-02-22T16:47:12.173Z,4.60
2019-02-22T16:49:42.860Z,5.23
2019-02-22T16:52:13.525Z,6.70
2019-02-22T16:54:44.505Z,5.47
2019-02-22T16:57:15.340Z,7.00
2019-02-22T16:59:46.110Z,6.47
2019-02-22T17:02:17.572Z,5.40
2019-02-22T17:04:49.136Z,5.23
2019-02-22T17:07:19.913Z,6.53
2019-02-22T17:09:50.695Z,6.70
2019-02-22T17:12:21.361Z,6.20
2019-02-22T17:14:52.048Z,10.17
2019-02-22T17:17:22.718Z,13.30
2019-02-22T17:19:53.421Z,6.17
2019-02-22T17:22:24.085Z,7.23
2019-02-22T17:24:54.791Z,7.50
2019-02-22T17:27:25.467Z,5.13
2019-02-22T17:29:56.129Z,4.77
2019-02-22T17:32:26.804Z,5.47
2019-02-22T17:34:57.641Z,5.93
2019-02-22T17:37:28.333Z,5.77
2019-02-22T17:39:59.024Z,4.73
2019-02-22T17:42:29.681Z,6.43
2019-02-22T17:45:00.379Z,6.83
2019-02-22T17:47:31.112Z,5.67
2019-02-22T17:50:02.765Z,4.37
2019-02-22T17:52:33.510Z,7.57
2019-02-22T17:55:04.232Z,7.90
2019-02-22T17:57:35.041Z,9.87
2019-02-22T18:00:06.639Z,13.10
2019-02-22T18:02:38.261Z,13.93
2019-02-22T18:05:08.958Z,13.10
2019-02-22T18:07:40.873Z,14.97
2019-02-22T18:10:11.932Z,19.83
2019-02-22T18:12:42.689Z,12.10
2019-02-22T18:15:13.413Z,10.63
2019-02-22T18:17:44.269Z,13.43
2019-02-22T18:20:15.010Z,7.20
2019-02-22T18:22:45.666Z,5.60
2019-02-22T18:25:16.424Z,6.27
2019-02-22T18:27:47.370Z,7.60
2019-02-22T18:30:18.118Z,5.97
2019-02-22T18:32:50.656Z,6.13
2019-02-22T18:35:21.476Z,5.07
2019-02-22T18:37:52.150Z,6.33
2019-02-22T18:40:22.866Z,9.47
2019-02-22T18:42:54.603Z,5.97
2019-02-22T18:45:26.024Z,6.83
2019-02-22T18:47:56.769Z,6.03
2019-02-22T18:50:27.432Z,9.40
2019-02-22T18:52:58.146Z,9.90
2019-02-22T18:55:28.815Z,10.57
2019-02-22T18:57:59.553Z,8.87
2019-02-22T19:00:31.998Z,9.97
2019-02-22T19:03:02.648Z,7.43
2019-02-22T19:05:33.327Z,11.30
2019-02-22T19:08:04.309Z,20.53
2019-02-22T19:10:35.996Z,28.30
2019-02-22T19:13:07.116Z,58.50
2019-02-22T19:15:38.902Z,49.77
2019-02-22T19:18:09.770Z,27.47
2019-02-22T19:20:40.653Z,14.93
2019-02-22T19:23:12.357Z,32.00
2019-02-22T19:25:43.043Z,24.47
2019-02-22T19:28:15.852Z,22.37
2019-02-22T19:30:47.688Z,8.40
2019-02-22T19:33:18.473Z,7.80
2019-02-22T19:35:49.148Z,14.20
2019-02-22T19:38:19.932Z,13.50
2019-02-22T19:40:50.693Z,9.03
2019-02-22T19:43:21.473Z,11.57
2019-02-22T19:45:53.357Z,10.63
2019-02-22T19:48:24.163Z,9.07
2019-02-22T19:50:54.876Z,8.73
2019-02-22T19:53:25.533Z,8.90
2019-02-22T19:55:57.279Z,7.93
2019-02-22T19:58:29.697Z,10.20
2019-02-22T20:01:00.382Z,9.93
2019-02-22T20:03:32.329Z,9.30
2019-02-22T20:06:04.138Z,7.93
2019-02-22T20:08:34.842Z,7.07
2019-02-22T20:11:05.609Z,7.73
2019-02-22T20:13:36.401Z,8.50
2019-02-22T20:16:07.141Z,9.17
2019-02-22T20:18:38.141Z,10.93
2019-02-22T20:21:09.573Z,9.40
2019-02-22T20:23:40.633Z,8.93
2019-02-22T20:26:12.310Z,16.80
2019-02-22T20:28:44.102Z,14.63
2019-02-22T20:31:20.402Z,13.03
2019-02-22T20:33:47.544Z,10.93
2019-02-22T20:36:27.985Z,8.97
2019-02-22T20:38:51.672Z,8.67
2019-02-22T20:41:22.522Z,10.20
2019-02-22T20:43:53.342Z,8.63
2019-02-22T20:46:25.242Z,11.70
2019-02-22T20:49:00.917Z,6.50
2019-02-22T20:51:30.628Z,6.77
2019-02-22T20:54:04.313Z,9.13
2019-02-22T20:56:34.980Z,8.80
2019-02-22T20:59:06.277Z,7.67
2019-02-22T21:01:36.955Z,7.07
2019-02-22T21:04:08.649Z,6.43
2019-02-22T21:06:39.418Z,6.33
2019-02-22T21:09:10.455Z,5.97
2019-02-22T21:11:41.122Z,8.60
2019-02-22T21:14:11.848Z,6.60
2019-02-22T21:16:43.040Z,6.27
2019-02-22T21:19:13.812Z,7.10
2019-02-22T21:21:45.598Z,5.50
2019-02-22T21:24:16.693Z,6.30
2019-02-22T21:26:47.367Z,4.83
2019-02-22T21:29:18.026Z,5.20
2019-02-22T21:31:48.688Z,4.97
2019-02-22T21:34:19.346Z,5.87
2019-02-22T21:36:50.613Z,4.80
2019-02-22T21:39:21.542Z,5.70
2019-02-22T21:41:52.212Z,4.83
2019-02-22T21:44:22.893Z,6.33
2019-02-22T21:46:54.597Z,7.57
2019-02-22T21:49:25.352Z,6.10
2019-02-22T21:51:56.540Z,4.87
2019-02-22T21:54:27.282Z,6.20
2019-02-22T21:56:57.938Z,6.97
2019-02-22T21:59:28.624Z,5.10
2019-02-22T22:01:59.296Z,7.90
2019-02-22T22:04:30.033Z,6.43
2019-02-22T22:07:00.707Z,6.03
2019-02-22T22:09:31.361Z,7.20
2019-02-22T22:12:02.054Z,7.20
2019-02-22T22:14:32.781Z,10.40
2019-02-22T22:17:03.506Z,7.03
2019-02-22T22:19:34.277Z,6.40
2019-02-22T22:22:05.106Z,9.10
2019-02-22T22:24:35.773Z,7.90
2019-02-22T22:27:06.453Z,7.73
2019-02-22T22:29:37.129Z,7.20
2019-02-22T22:32:07.865Z,7.73
2019-02-22T22:34:38.541Z,7.37
2019-02-22T22:37:09.200Z,7.97
2019-02-22T22:39:39.864Z,10.10
2019-02-22T22:42:10.635Z,7.27
2019-02-22T22:44:41.393Z,8.37
2019-02-22T22:47:12.082Z,8.97
2019-02-22T22:49:43.067Z,8.57
2019-02-22T22:52:13.733Z,7.53
2019-02-22T22:54:44.392Z,8.27
2019-02-22T22:57:15.057Z,9.60
2019-02-22T22:59:45.726Z,8.23
2019-02-22T23:02:16.388Z,9.03
2019-02-22T23:04:47.074Z,7.60
2019-02-22T23:07:17.813Z,8.27
2019-02-22T23:09:48.472Z,7.73
2019-02-22T23:12:19.206Z,8.20
2019-02-22T23:14:49.893Z,9.27
2019-02-22T23:17:20.617Z,10.57
2019-02-22T23:19:51.293Z,9.43
2019-02-22T23:22:21.973Z,10.33
2019-02-22T23:24:52.645Z,9.30
2019-02-22T23:27:23.401Z,9.43
2019-02-22T23:29:54.047Z,10.03
2019-02-22T23:32:24.717Z,9.47
2019-02-22T23:34:55.369Z,8.90
2019-02-22T23:37:26.045Z,11.80
2019-02-22T23:39:56.716Z,9.17
2019-02-22T23:42:27.372Z,10.23
2019-02-22T23:44:58.046Z,9.83
2019-02-22T23:47:28.800Z,11.30
2019-02-22T23:49:59.477Z,10.80
2019-02-22T23:52:30.211Z,12.00
2019-02-22T23:55:00.913Z,13.20
2019-02-22T23:57:31.662Z,10.43
